Time;durP1;ratioP1;P1;durP2;ratioP2;P2;SDS_P1;SDS_P2;PMS_P1;PMS_P2;Temp;Humidity;BMP_temperature;BMP_pressure;BME280_temperature;BME280_humidity;BME280_pressure;Samples;Min_cycle;Max_cycle;Signal;HPM_P1;HPM_P2
2021/05/27 00:02:58;;;;;;;4.30;2.10;;;;;;;11.05;80.15;100013.88;6320171;28;20119;-63
2021/05/27 00:05:58;;;;;;;3.67;2.15;;;;;;;11.04;80.34;100019.22;6320031;28;20123;-66
2021/05/27 00:08:59;;;;;;;5.88;2.38;;;;;;;11.08;80.85;100018.91;6344348;28;20096;-64
2021/05/27 00:12:00;;;;;;;6.53;2.20;;;;;;;11.15;80.38;100018.53;6346537;28;20039;-63
2021/05/27 00:15:03;;;;;;;3.72;2.10;;;;;;;11.13;80.97;100010.78;6328215;28;20051;-64
2021/05/27 00:18:05;;;;;;;4.13;2.25;;;;;;;11.06;80.41;100019.97;6345224;28;20048;-64
2021/05/27 00:21:11;;;;;;;6.60;2.72;;;;;;;11.08;79.53;100013.69;6313363;28;20035;-63
2021/05/27 00:24:12;;;;;;;4.45;3.22;;;;;;;11.05;80.67;100018.28;6346274;28;20036;-64
2021/05/27 00:27:13;;;;;;;3.00;2.10;;;;;;;10.98;81.65;100012.59;6345014;28;20036;-64
2021/05/27 00:30:15;;;;;;;3.10;2.05;;;;;;;10.97;79.48;100010.91;6344962;28;20044;-64
2021/05/27 00:33:16;;;;;;;4.70;2.40;;;;;;;10.97;80.33;100013.53;6345056;28;20035;-63
2021/05/27 00:36:17;;;;;;;4.28;2.10;;;;;;;10.95;80.19;100009.34;6346894;28;20097;-63
2021/05/27 00:39:17;;;;;;;5.38;2.30;;;;;;;10.96;79.93;100005.81;6351511;28;20035;-64
2021/05/27 00:42:18;;;;;;;8.68;2.75;;;;;;;10.87;80.70;100010.69;6333206;28;20047;-64
2021/05/27 00:45:19;;;;;;;4.28;2.03;;;;;;;10.80;82.35;100009.38;6367435;27;20052;-64
2021/05/27 00:51:42;;;;;;;4.32;2.08;;;;;;;10.62;81.49;100015.75;6351157;28;20032;-65
2021/05/27 00:54:43;;;;;;;3.00;1.80;;;;;;;10.42;82.02;100017.81;6350982;28;20494;-63
2021/05/27 00:57:44;;;;;;;3.97;2.10;;;;;;;10.53;82.98;100014.53;6332743;28;20051;-66
2021/05/27 01:00:45;;;;;;;3.70;2.10;;;;;;;10.57;82.67;100016.03;6349884;28;20412;-66
2021/05/27 01:03:46;;;;;;;2.53;1.83;;;;;;;10.49;82.49;100013.06;6350861;28;20032;-66
2021/05/27 01:06:47;;;;;;;5.10;1.67;;;;;;;10.47;82.86;100013.13;6350792;28;20051;-66
2021/05/27 01:09:48;;;;;;;4.78;1.88;;;;;;;10.45;82.03;100009.78;6349527;28;20047;-66
2021/05/27 01:12:48;;;;;;;2.17;1.88;;;;;;;10.45;82.18;100007.19;6349713;28;20040;-66
2021/05/27 01:15:51;;;;;;;3.85;2.10;;;;;;;10.56;81.82;100009.13;6332450;28;20112;-66
2021/05/27 01:18:51;;;;;;;2.03;1.70;;;;;;;10.67;81.60;100011.91;6332386;28;20043;-66
2021/05/27 01:21:52;;;;;;;2.33;1.80;;;;;;;10.59;82.11;100011.56;6350544;28;20127;-66
2021/05/27 01:24:53;;;;;;;2.80;1.88;;;;;;;10.64;82.34;100011.25;6349193;28;20031;-67
2021/05/27 01:27:55;;;;;;;2.97;1.80;;;;;;;10.53;83.16;100016.31;6331988;28;20047;-66
2021/05/27 01:30:58;;;;;;;3.95;2.00;;;;;;;10.25;83.49;100012.72;6348969;28;20051;-66
2021/05/27 01:33:59;;;;;;;3.67;2.03;;;;;;;10.05;83.63;100000.91;6349301;28;20040;-66
2021/05/27 01:37:00;;;;;;;2.10;1.80;;;;;;;10.15;82.68;100012.47;6332078;28;20057;-66
2021/05/27 01:40:01;;;;;;;2.65;2.00;;;;;;;10.24;84.14;100013.69;6348765;28;20039;-66
2021/05/27 01:43:02;;;;;;;5.13;1.90;;;;;;;10.19;83.39;100015.72;6348785;28;20093;-66
2021/05/27 01:46:03;;;;;;;2.10;1.58;;;;;;;10.15;82.79;100011.59;6299191;28;20063;-66
2021/05/27 01:49:03;;;;;;;3.50;1.77;;;;;;;10.18;83.07;100014.88;6324385;28;20112;-66
2021/05/27 01:52:05;;;;;;;1.88;1.58;;;;;;;10.22;81.99;100010.31;6323212;28;20048;-67
2021/05/27 01:55:06;;;;;;;6.03;1.88;;;;;;;10.14;83.21;100009.94;6324092;28;20551;-67
2021/05/27 01:58:08;;;;;;;1.75;1.63;;;;;;;10.01;83.51;100018.50;6306275;28;20048;-67
2021/05/27 02:01:10;;;;;;;3.05;1.70;;;;;;;9.95;84.28;100016.25;6323027;28;20543;-66
2021/05/27 02:04:10;;;;;;;6.53;1.95;;;;;;;9.83;84.46;100022.19;6331233;28;20486;-66
2021/05/27 02:07:13;;;;;;;2.47;1.80;;;;;;;9.86;84.33;100022.00;6348176;28;20076;-66
2021/05/27 02:10:15;;;;;;;2.17;1.73;;;;;;;9.89;85.09;100021.81;6349300;28;20040;-66
2021/05/27 02:13:16;;;;;;;2.88;1.70;;;;;;;9.83;84.57;100024.78;6348120;28;20089;-66
2021/05/27 02:16:17;;;;;;;1.75;1.42;;;;;;;9.88;83.91;100025.34;6344003;28;20490;-66
2021/05/27 02:19:19;;;;;;;2.80;1.38;;;;;;;9.85;84.11;100025.53;6323753;28;20032;-66
2021/05/27 02:22:19;;;;;;;2.90;1.88;;;;;;;9.75;83.00;100024.41;6322476;28;20391;-65
2021/05/27 02:25:20;;;;;;;3.88;1.60;;;;;;;9.73;83.37;100013.22;6322735;28;20055;-66
2021/05/27 02:28:21;;;;;;;13.60;2.10;;;;;;;9.73;83.75;100016.66;6323467;28;20040;-66
2021/05/27 02:31:23;;;;;;;4.65;1.60;;;;;;;9.75;82.83;100011.38;6323486;28;20043;-66
2021/05/27 02:34:24;;;;;;;4.35;1.70;;;;;;;9.71;83.91;100012.47;6305565;28;20074;-66
2021/05/27 02:37:25;;;;;;;7.32;1.55;;;;;;;9.65;83.54;100014.50;6333189;28;20440;-66
2021/05/27 02:40:26;;;;;;;2.20;1.40;;;;;;;9.66;84.59;100018.78;6347406;28;20103;-66
2021/05/27 02:43:28;;;;;;;2.72;1.48;;;;;;;9.61;83.55;100023.41;6348674;27;20051;-66
2021/05/27 02:46:29;;;;;;;2.88;1.48;;;;;;;9.67;82.68;100024.81;6348352;28;20104;-66
2021/05/27 02:49:30;;;;;;;2.70;1.40;;;;;;;9.66;83.18;100017.97;6348205;28;20040;-66
2021/05/27 02:52:31;;;;;;;1.48;1.38;;;;;;;9.52;84.04;100016.13;6348352;28;20043;-66
2021/05/27 02:55:31;;;;;;;2.15;1.35;;;;;;;9.58;84.09;100018.38;6348000;28;20048;-66
2021/05/27 02:58:32;;;;;;;9.38;1.77;;;;;;;9.63;nan;100015.50;6329336;28;20047;-66
2021/05/27 03:01:34;;;;;;;8.05;2.00;;;;;;;9.63;82.72;100018.13;6347909;28;20039;-66
2021/05/27 03:04:35;;;;;;;7.93;1.95;;;;;;;9.69;83.64;100012.56;6347813;28;20132;-66
2021/05/27 03:07:36;;;;;;;5.25;1.60;;;;;;;9.65;84.13;100021.47;6346550;28;20553;-66
2021/05/27 03:10:37;;;;;;;8.27;1.90;;;;;;;9.45;84.62;100023.47;6347766;28;20047;-66
2021/05/27 03:13:38;;;;;;;4.53;1.70;;;;;;;9.53;84.28;100015.19;6308031;28;20035;-67
2021/05/27 03:16:39;;;;;;;11.15;1.92;;;;;;;9.50;85.31;100018.00;6321058;28;20047;-66
2021/05/27 03:19:40;;;;;;;7.85;1.92;;;;;;;9.53;84.15;100019.56;6322518;28;20036;-66
2021/05/27 03:22:41;;;;;;;1.98;1.52;;;;;;;9.53;82.80;100025.63;6321011;28;20044;-66
2021/05/27 03:25:42;;;;;;;5.28;1.70;;;;;;;9.53;83.63;100016.97;6321038;28;20487;-66
2021/05/27 03:28:43;;;;;;;4.22;2.00;;;;;;;9.66;84.07;100026.59;6320824;28;20086;-63
2021/05/27 03:31:44;;;;;;;3.83;1.70;;;;;;;9.68;84.21;100026.53;6321942;28;20040;-63
2021/05/27 03:34:44;;;;;;;9.73;2.00;;;;;;;9.66;84.90;100016.19;6336104;28;20040;-63
2021/05/27 03:37:45;;;;;;;8.18;1.75;;;;;;;9.78;84.46;100017.25;6329088;28;20582;-63
2021/05/27 03:40:46;;;;;;;6.55;2.15;;;;;;;9.90;84.71;100018.28;6347156;28;20165;-64
2021/05/27 03:43:47;;;;;;;3.45;1.85;;;;;;;9.88;85.31;100012.31;6345775;28;20051;-63
2021/05/27 03:46:47;;;;;;;3.95;1.70;;;;;;;10.03;84.34;100019.25;6345646;28;20044;-63
2021/05/27 03:49:48;;;;;;;6.75;2.10;;;;;;;10.07;84.83;100022.50;6328655;28;20044;-64
2021/05/27 03:52:50;;;;;;;21.35;2.45;;;;;;;10.09;84.38;100028.47;6328935;28;20044;-63
2021/05/27 03:55:50;;;;;;;10.57;1.60;;;;;;;10.28;84.04;100026.44;6346852;28;20066;-63
2021/05/27 04:02:10;;;;;;;5.63;1.58;;;;;;;10.53;81.94;100029.38;6346854;28;20042;-66
2021/05/27 04:08:33;;;;;;;3.60;1.73;;;;;;;10.83;80.02;100032.69;6346460;28;20138;-66
2021/05/27 04:11:33;;;;;;;5.88;1.92;;;;;;;11.01;79.61;100035.06;6345603;28;20036;-66
2021/05/27 04:14:34;;;;;;;9.75;2.10;;;;;;;10.84;78.36;100025.69;6346593;28;20035;-66
2021/05/27 04:17:35;;;;;;;4.65;1.80;;;;;;;10.54;75.46;100033.63;6345103;28;20417;-63
2021/05/27 04:20:51;;;;;;;2.17;1.40;;;;;;;10.36;73.88;100030.41;6324337;28;20040;-66
2021/05/27 04:23:52;;;;;;;5.55;1.63;;;;;;;10.28;73.60;100034.25;6328512;28;20049;-66
2021/05/27 04:26:53;;;;;;;2.55;1.35;;;;;;;10.31;73.76;100029.81;6340423;28;20438;-66
2021/05/27 04:29:54;;;;;;;6.13;1.50;;;;;;;10.30;73.78;100030.75;6307055;28;20379;-64
2021/05/27 04:33:08;;;;;;;5.15;1.52;;;;;;;10.34;74.90;100035.69;6325487;28;20044;-64
2021/05/27 04:36:10;;;;;;;6.25;1.73;;;;;;;10.49;73.75;100033.91;6320880;28;20040;-65
2021/05/27 04:39:11;;;;;;;3.00;1.55;;;;;;;10.71;75.74;100043.03;6319566;28;20467;-64
2021/05/27 04:42:12;;;;;;;6.43;1.70;;;;;;;10.88;73.36;100030.63;6336490;28;20093;-67
2021/05/27 04:45:14;;;;;;;1.15;1.05;;;;;;;11.06;69.98;100035.63;6344932;28;20043;-63
2021/05/27 04:48:15;;;;;;;4.43;1.70;;;;;;;11.18;70.40;100036.59;6327763;28;20124;-64
2021/05/27 04:51:16;;;;;;;3.67;1.38;;;;;;;11.27;66.26;100036.03;6346125;28;20043;-64
2021/05/27 04:54:18;;;;;;;2.35;1.20;;;;;;;11.45;67.54;100039.25;6345807;28;20052;-63
2021/05/27 04:57:19;;;;;;;2.03;1.27;;;;;;;11.59;67.34;100041.78;6330699;28;20058;-63
2021/05/27 05:00:21;;;;;;;3.47;1.92;;;;;;;11.81;65.40;100032.53;6336769;28;20044;-63
2021/05/27 05:03:22;;;;;;;8.05;1.58;;;;;;;12.08;62.76;100027.25;6334953;28;20512;-62
2021/05/27 05:06:23;;;;;;;3.25;1.50;;;;;;;12.23;60.37;100027.97;6345898;28;20054;-62
2021/05/27 05:09:24;;;;;;;6.45;1.33;;;;;;;12.39;61.42;100027.78;6327509;28;20422;-62
2021/05/27 05:12:24;;;;;;;4.20;1.33;;;;;;;12.51;62.95;100032.16;6345814;28;20048;-62
2021/05/27 05:15:28;;;;;;;7.60;1.50;;;;;;;12.59;60.24;100034.25;6345575;28;20055;-62
2021/05/27 05:18:29;;;;;;;2.95;1.65;;;;;;;12.69;61.37;100030.03;6345561;28;20047;-63
2021/05/27 05:21:29;;;;;;;7.60;1.20;;;;;;;12.88;58.71;100027.78;6344853;28;20452;-62
2021/05/27 05:24:30;;;;;;;6.90;1.25;;;;;;;13.01;58.35;100035.63;6349409;28;20059;-62
2021/05/27 05:27:31;;;;;;;6.28;1.45;;;;;;;13.12;58.63;100029.63;6349019;28;20116;-63
2021/05/27 05:30:33;;;;;;;6.00;1.10;;;;;;;13.25;57.61;100030.38;6350000;28;20044;-63
2021/05/27 05:33:33;;;;;;;2.25;0.90;;;;;;;13.41;60.10;100035.38;6349088;28;20401;-63
2021/05/27 05:36:35;;;;;;;3.72;1.10;;;;;;;13.53;59.36;100038.03;6348955;28;20051;-64
2021/05/27 05:39:35;;;;;;;3.35;1.30;;;;;;;13.65;57.06;100043.25;6332008;28;20070;-63
2021/05/27 05:42:40;;;;;;;3.13;1.45;;;;;;;13.82;57.40;100038.53;6349929;28;20035;-63
2021/05/27 05:45:41;;;;;;;1.20;1.08;;;;;;;13.99;56.21;100040.72;6332270;28;20040;-63
2021/05/27 05:48:42;;;;;;;4.72;1.20;;;;;;;14.09;56.61;100038.22;6349699;28;20050;-63
2021/05/27 05:51:43;;;;;;;5.28;1.15;;;;;;;14.25;55.34;100038.72;6348642;28;20044;-63
2021/05/27 05:54:44;;;;;;;2.55;1.08;;;;;;;14.46;53.93;100038.88;6348333;28;20107;-63
2021/05/27 05:57:44;;;;;;;8.07;1.20;;;;;;;14.59;54.88;100037.94;6349596;28;20043;-63
2021/05/27 06:00:46;;;;;;;3.97;1.30;;;;;;;14.78;54.43;100030.28;6349341;28;20050;-63
2021/05/27 06:03:47;;;;;;;2.33;0.98;;;;;;;14.91;54.00;100033.63;6349507;28;20041;-63
2021/05/27 06:06:51;;;;;;;4.32;1.00;;;;;;;15.05;56.79;100035.16;6348204;28;20035;-63
2021/05/27 06:09:51;;;;;;;7.78;1.35;;;;;;;15.27;56.17;100033.41;6349261;28;20182;-62
2021/05/27 06:12:55;;;;;;;3.65;0.95;;;;;;;15.36;55.00;100034.44;6349258;28;20043;-63
2021/05/27 06:15:56;;;;;;;2.75;0.90;;;;;;;15.48;53.65;100033.44;6347964;28;20586;-63
2021/05/27 06:18:58;;;;;;;3.22;0.95;;;;;;;15.56;53.80;100038.91;6348696;28;20051;-63
2021/05/27 06:22:00;;;;;;;2.35;0.80;;;;;;;15.71;54.67;100028.94;6347791;28;20032;-63
2021/05/27 06:25:01;;;;;;;1.30;0.70;;;;;;;15.86;51.07;100026.88;6348961;28;20051;-62
2021/05/27 06:28:01;;;;;;;8.93;1.00;;;;;;;16.07;49.92;100032.13;6334128;28;20036;-63
2021/05/27 06:31:03;;;;;;;6.57;1.13;;;;;;;16.21;47.77;100023.06;6339557;28;20051;-63
2021/05/27 06:34:04;;;;;;;1.77;0.70;;;;;;;16.32;47.49;100023.78;6358632;27;20047;-63
2021/05/27 06:37:04;;;;;;;1.83;0.77;;;;;;;16.45;45.63;100028.88;6335562;28;20284;-63
2021/05/27 06:40:08;;;;;;;0.93;0.50;;;;;;;16.62;43.95;100030.03;6323406;28;20047;-63
2021/05/27 06:43:09;;;;;;;1.35;0.68;;;;;;;16.73;44.90;100035.19;6346704;28;20067;-63
2021/05/27 06:46:10;;;;;;;4.07;0.98;;;;;;;16.86;44.79;100035.00;6348173;28;20054;-63
2021/05/27 06:49:11;;;;;;;3.60;0.87;;;;;;;16.96;43.10;100031.53;6330361;28;20051;-63
2021/05/27 06:52:12;;;;;;;1.58;0.70;;;;;;;17.16;44.16;100024.50;6330377;28;20097;-60
2021/05/27 06:55:13;;;;;;;5.43;0.77;;;;;;;17.28;41.25;100018.16;6346917;28;20071;-60
2021/05/27 06:58:15;;;;;;;2.05;0.70;;;;;;;17.38;41.95;100029.53;6364361;27;20043;-60
2021/05/27 07:01:16;;;;;;;2.90;0.70;;;;;;;17.41;43.71;100026.59;6346886;28;20097;-63
2021/05/27 07:04:17;;;;;;;6.43;0.80;;;;;;;17.46;41.21;100024.41;6348055;28;20039;-60
2021/05/27 07:07:18;;;;;;;3.28;0.90;;;;;;;17.56;37.95;100018.28;6347878;28;20040;-60
2021/05/27 07:10:19;;;;;;;1.05;0.50;;;;;;;17.68;36.95;100025.91;6346565;28;20039;-63
2021/05/27 07:13:20;;;;;;;0.52;0.40;;;;;;;17.70;36.04;100038.97;6345118;28;20533;-62
2021/05/27 07:16:21;;;;;;;2.00;0.47;;;;;;;17.73;39.24;100028.97;6322430;28;20046;-62
2021/05/27 07:19:22;;;;;;;1.13;0.65;;;;;;;17.90;39.13;100031.91;6324869;28;20049;-62
2021/05/27 07:22:23;;;;;;;5.32;0.60;;;;;;;17.94;39.57;100032.47;6340789;28;20048;-62
2021/05/27 07:25:25;;;;;;;1.50;0.63;;;;;;;17.95;38.33;100034.94;6321012;28;20068;-63
2021/05/27 07:28:26;;;;;;;4.32;0.65;;;;;;;17.99;36.46;100030.22;6320746;28;20074;-62
2021/05/27 07:31:27;;;;;;;2.63;0.77;;;;;;;18.05;36.69;100030.47;6322022;28;20127;-62
2021/05/27 07:34:28;;;;;;;10.32;1.00;;;;;;;18.18;36.15;100022.25;6320777;28;20440;-62
2021/05/27 07:37:30;;;;;;;1.93;1.00;;;;;;;18.27;35.67;100026.66;6333499;28;20505;-63
2021/05/27 07:40:32;;;;;;;1.30;0.70;;;;;;;18.43;36.14;100017.28;6345963;28;20280;-62
2021/05/27 07:43:32;;;;;;;3.45;0.65;;;;;;;18.50;36.46;100008.63;6345746;28;20043;-62
2021/05/27 07:46:34;;;;;;;9.15;0.90;;;;;;;18.61;34.98;100012.88;6345633;28;20043;-62
2021/05/27 07:49:35;;;;;;;7.20;1.00;;;;;;;18.68;35.83;100016.63;6328492;28;20058;-63
2021/05/27 07:52:36;;;;;;;32.58;2.95;;;;;;;18.75;35.73;100014.22;6346969;28;20058;-62
2021/05/27 07:55:37;;;;;;;7.40;0.90;;;;;;;18.76;36.18;100013.25;6362532;27;20055;-63
2021/05/27 07:58:38;;;;;;;7.07;0.90;;;;;;;18.93;36.90;100011.66;6346755;28;20043;-63
2021/05/27 08:01:42;;;;;;;3.33;0.80;;;;;;;19.04;36.65;100013.25;6346600;28;20276;-62
2021/05/27 08:04:43;;;;;;;4.70;1.00;;;;;;;19.10;36.39;100012.66;6345286;28;20058;-62
2021/05/27 08:07:45;;;;;;;3.88;0.88;;;;;;;19.14;36.41;100011.38;6345333;28;20035;-63
2021/05/27 08:10:46;;;;;;;8.88;1.13;;;;;;;19.20;35.33;100020.53;6346574;28;20047;-63
2021/05/27 08:13:47;;;;;;;2.47;1.30;;;;;;;19.21;35.85;100017.75;6330032;28;20048;-62
2021/05/27 08:16:48;;;;;;;1.77;0.88;;;;;;;19.21;36.10;100020.38;6347020;28;20275;-64
2021/05/27 08:19:49;;;;;;;1.33;0.82;;;;;;;19.28;35.27;100021.44;6328342;28;20122;-64
2021/05/27 08:22:50;;;;;;;6.22;0.95;;;;;;;19.33;36.33;100016.53;6339746;28;20040;-64
2021/05/27 08:25:51;;;;;;;7.13;0.85;;;;;;;19.42;34.39;100017.44;6346295;28;20093;-64
2021/05/27 08:28:52;;;;;;;4.47;0.82;;;;;;;19.56;34.70;100020.50;6345037;28;20044;-64
2021/05/27 08:31:53;;;;;;;1.35;0.70;;;;;;;19.57;34.77;100014.25;6345000;28;20047;-64
2021/05/27 08:34:54;;;;;;;3.22;1.02;;;;;;;19.61;34.77;100020.91;6346197;28;20039;-63
2021/05/27 08:37:55;;;;;;;2.95;0.80;;;;;;;19.61;33.69;100019.09;6344882;28;20035;-64
2021/05/27 08:40:56;;;;;;;1.63;0.77;;;;;;;19.68;34.66;100019.28;6344888;28;20055;-63
2021/05/27 08:43:58;;;;;;;2.87;0.90;;;;;;;19.65;33.95;100024.91;6327985;28;20472;-64
2021/05/27 08:46:59;;;;;;;2.30;0.83;;;;;;;19.78;35.11;100027.19;6341387;28;20048;-63
2021/05/27 08:50:01;;;;;;;6.47;0.70;;;;;;;19.88;35.42;100012.03;6320668;28;20276;-64
2021/05/27 08:53:02;;;;;;;;;;;;;;;19.98;34.58;100010.13;6321595;28;20044;-64
2021/05/27 08:56:03;;;;;;;2.22;0.60;;;;;;;20.05;33.55;100010.31;6321554;28;19928;-63
2021/05/27 08:59:05;;;;;;;4.38;0.55;;;;;;;20.10;34.35;100013.34;6324518;28;20048;-64
2021/05/27 09:02:10;;;;;;;5.20;0.90;;;;;;;20.06;31.28;100006.69;6324395;28;20111;-64
2021/05/27 09:05:15;;;;;;;1.45;0.50;;;;;;;20.08;33.38;100010.03;6325392;28;20405;-64
2021/05/27 09:08:30;;;;;;;1.92;0.60;;;;;;;19.98;31.12;99994.22;6324266;28;20402;-64
2021/05/27 09:11:38;;;;;;;3.20;1.25;;;;;;;19.89;34.28;100003.09;6324089;28;20036;-64
2021/05/27 09:14:41;;;;;;;1.67;0.60;;;;;;;19.87;33.26;99991.81;6325829;28;20040;-64
2021/05/27 09:17:52;;;;;;;0.93;0.60;;;;;;;20.03;34.52;99997.22;6325302;28;20055;-64
2021/05/27 09:20:54;;;;;;;3.20;0.70;;;;;;;20.26;34.25;99994.91;6324068;28;20052;-64
2021/05/27 09:23:55;;;;;;;2.00;0.60;;;;;;;20.41;34.47;99991.66;6325564;28;20044;-64
2021/05/27 09:26:56;;;;;;;6.03;0.95;;;;;;;20.50;33.96;99994.16;6330949;28;20092;-64
2021/05/27 09:30:00;;;;;;;3.65;0.68;;;;;;;20.57;32.92;99996.19;6350223;28;20039;-64
2021/05/27 09:33:01;;;;;;;0.70;0.60;;;;;;;20.61;32.11;99997.53;6331804;28;20116;-64
2021/05/27 09:36:09;;;;;;;3.90;0.70;;;;;;;20.75;32.77;100002.25;6332093;28;20126;-64
2021/05/27 09:39:09;;;;;;;2.28;0.82;;;;;;;20.87;33.47;99998.31;6348998;28;20505;-64
2021/05/27 09:42:10;;;;;;;2.33;0.77;;;;;;;20.91;33.51;100001.47;6350063;28;20035;-64
2021/05/27 09:45:18;;;;;;;1.80;1.10;;;;;;;20.97;32.47;100002.66;6350016;28;20494;-64
2021/05/27 09:48:24;;;;;;;3.70;0.68;;;;;;;20.92;31.08;99992.53;6349721;28;20051;-64
2021/05/27 09:51:27;;;;;;;1.20;0.63;;;;;;;20.92;32.80;99984.56;6349748;28;20044;-64
2021/05/27 09:54:54;;;;;;;1.77;0.60;;;;;;;21.01;32.95;99986.25;6349623;28;20509;-63
2021/05/27 09:58:06;;;;;;;1.83;0.38;;;;;;;21.03;33.01;99983.44;6349759;28;20040;-64
2021/05/27 10:01:08;;;;;;;4.38;0.68;;;;;;;21.11;33.15;99976.31;6349485;28;20036;-64
2021/05/27 10:04:12;;;;;;;0.85;0.47;;;;;;;21.23;34.32;99971.53;6349480;28;20118;-64
2021/05/27 10:07:43;;;;;;;2.22;0.60;;;;;;;21.31;32.29;99970.69;6349283;28;20070;-64
2021/05/27 10:10:53;;;;;;;1.05;0.70;;;;;;;21.41;31.73;99967.88;6347587;28;20039;-64
2021/05/27 10:13:57;;;;;;;1.23;0.60;;;;;;;21.62;31.11;99962.06;6349021;28;20088;-64
2021/05/27 10:17:01;;;;;;;4.63;0.70;;;;;;;21.48;31.74;99960.94;6348134;28;20052;-63
2021/05/27 10:20:04;;;;;;;9.07;0.80;;;;;;;21.58;31.74;99958.09;6349159;28;20047;-62
2021/05/27 10:23:09;;;;;;;2.83;0.50;;;;;;;21.64;31.60;99960.09;6347894;28;20363;-62
2021/05/27 10:26:10;;;;;;;1.73;0.70;;;;;;;21.50;29.47;99949.16;6343421;28;20040;-61
2021/05/27 10:29:11;;;;;;;2.03;0.80;;;;;;;21.55;31.09;99956.63;6337334;27;20046;-61
2021/05/27 10:32:12;;;;;;;5.63;0.83;;;;;;;21.65;30.95;99944.00;6330782;28;20486;-62
2021/05/27 10:35:16;;;;;;;0.50;0.50;;;;;;;21.70;30.88;99947.00;6331125;28;20047;-62
2021/05/27 10:38:40;;;;;;;;;;;;;;;21.74;31.61;99939.50;6331391;28;20044;-62
2021/05/27 10:41:41;;;;;;;2.13;0.60;;;;;;;22.03;32.15;99946.91;6352903;27;19931;-63
2021/05/27 10:45:08;;;;;;;2.20;0.40;;;;;;;22.12;29.87;99940.56;6323656;28;20036;-63
2021/05/27 10:48:15;;;;;;;1.83;0.52;;;;;;;22.29;31.99;99948.50;6323323;28;20043;-61
2021/05/27 10:51:32;;;;;;;1.10;0.60;;;;;;;22.41;29.72;99948.97;6322956;28;20040;-61
2021/05/27 10:54:32;;;;;;;0.65;0.60;;;;;;;22.34;29.00;99938.19;6305684;28;20056;-61
2021/05/27 10:57:39;;;;;;;0.97;0.40;;;;;;;22.44;30.03;99943.28;6336401;28;20047;-61
2021/05/27 11:00:48;;;;;;;3.45;0.90;;;;;;;22.69;30.65;99938.66;6346829;28;20052;-62
2021/05/27 11:03:52;;;;;;;5.60;0.60;;;;;;;22.99;29.80;99937.00;6346858;28;20067;-61
2021/05/27 11:07:17;;;;;;;1.48;0.52;;;;;;;23.03;28.36;99933.00;6347988;28;20074;-62
2021/05/27 11:10:28;;;;;;;0.80;0.70;;;;;;;23.05;28.26;99919.53;6347935;28;20042;-61
2021/05/27 11:13:29;;;;;;;2.70;0.63;;;;;;;23.25;28.59;99918.03;6347960;28;20048;-61
2021/05/27 11:16:30;;;;;;;2.00;0.50;;;;;;;23.44;29.73;99911.38;6347696;28;20101;-61
2021/05/27 11:26:17;;;;;;;4.07;0.75;;;;;;;23.71;28.79;99909.13;6346341;28;20043;-62
2021/05/27 11:29:18;;;;;;;1.23;0.43;;;;;;;23.50;28.76;99907.16;6347516;28;20036;-62
2021/05/27 11:32:35;;;;;;;1.30;0.60;;;;;;;23.71;28.54;99901.94;6339059;28;20109;-61
2021/05/27 11:35:41;;;;;;;3.17;0.70;;;;;;;23.76;27.27;99890.72;6322000;28;20040;-61
2021/05/27 11:38:42;;;;;;;2.53;0.77;;;;;;;23.99;28.19;99885.38;6341562;28;20072;-62
2021/05/27 11:41:44;;;;;;;2.38;0.65;;;;;;;24.15;29.94;99889.66;6346082;28;20040;-62
2021/05/27 11:45:01;;;;;;;2.72;0.55;;;;;;;24.54;28.15;99883.16;6347173;28;20132;-62
2021/05/27 11:48:08;;;;;;;8.43;0.80;;;;;;;25.00;27.30;99882.81;6345893;28;20110;-62
2021/05/27 11:51:12;;;;;;;2.53;0.73;;;;;;;25.32;26.15;99885.97;6346989;28;20032;-62
2021/05/27 11:54:14;;;;;;;1.52;0.63;;;;;;;25.69;25.48;99876.75;6346747;28;20051;-61
2021/05/27 11:57:18;;;;;;;1.92;0.57;;;;;;;27.06;25.56;99874.19;6346947;28;20043;-63
2021/05/27 12:00:20;;;;;;;2.65;0.68;;;;;;;30.59;20.45;99885.28;6345514;28;20054;-63
2021/05/27 12:03:23;;;;;;;5.38;0.60;;;;;;;33.10;17.38;99877.16;6332151;28;20048;-63
2021/05/27 12:06:24;;;;;;;0.93;0.57;;;;;;;33.38;17.71;99872.72;6321780;28;20071;-63
2021/05/27 12:09:25;;;;;;;2.67;0.70;;;;;;;33.77;18.30;99885.44;6303376;28;20040;-60
2021/05/27 12:12:29;;;;;;;3.50;0.40;;;;;;;34.82;15.98;99882.53;6321148;28;20047;-62
2021/05/27 12:15:31;;;;;;;2.40;0.70;;;;;;;34.58;14.95;99877.44;6320049;28;20131;-62
2021/05/27 12:18:32;;;;;;;3.45;0.70;;;;;;;33.44;15.10;99870.88;6336780;28;20040;-62
2021/05/27 12:21:34;;;;;;;2.05;0.60;;;;;;;34.20;16.10;99868.38;6346401;28;20040;-62
2021/05/27 12:24:36;;;;;;;4.93;0.80;;;;;;;34.65;15.74;99866.41;6345124;28;20067;-62
2021/05/27 12:27:39;;;;;;;0.65;0.40;;;;;;;34.34;15.96;99863.38;6346177;28;20040;-62
2021/05/27 12:30:45;;;;;;;0.35;0.30;;;;;;;34.29;15.60;99863.34;6327862;28;20047;-62
2021/05/27 12:33:46;;;;;;;1.95;0.55;;;;;;;32.75;17.72;99855.75;6335417;28;20055;-61
2021/05/27 12:36:59;;;;;;;0.57;0.40;;;;;;;30.34;19.11;99858.50;6320959;28;20036;-61
2021/05/27 12:40:04;;;;;;;3.03;0.65;;;;;;;29.28;21.60;99852.41;6331258;28;20036;-65
2021/05/27 12:43:22;;;;;;;6.07;0.55;;;;;;;28.40;22.27;99848.69;6328284;28;20043;-65
2021/05/27 12:46:33;;;;;;;0.88;0.60;;;;;;;28.00;22.76;99843.53;6339635;28;20131;-64
2021/05/27 12:49:34;;;;;;;1.30;0.50;;;;;;;26.91;23.28;99848.44;6334501;28;20407;-62
2021/05/27 12:52:41;;;;;;;1.75;0.40;;;;;;;26.71;23.76;99840.38;6320820;28;20051;-63
2021/05/27 12:55:42;;;;;;;4.35;0.65;;;;;;;26.41;24.90;99829.16;6320567;28;20070;-64
2021/05/27 12:58:51;;;;;;;3.63;1.20;;;;;;;25.61;25.12;99834.16;6302662;28;20060;-64
2021/05/27 13:01:58;;;;;;;6.10;0.75;;;;;;;25.52;25.72;99832.69;6320832;28;20116;-63
2021/05/27 13:05:15;;;;;;;4.30;0.50;;;;;;;25.88;26.37;99821.78;6320583;28;20137;-63
2021/05/27 13:08:17;;;;;;;5.53;0.60;;;;;;;26.14;25.85;99830.97;6320727;28;20139;-63
2021/05/27 13:11:20;;;;;;;1.20;0.80;;;;;;;25.92;24.28;99827.56;6320469;28;20040;-64
2021/05/27 13:14:25;;;;;;;16.52;0.80;;;;;;;25.96;25.87;99826.16;6320263;28;20562;-63
2021/05/27 13:17:26;;;;;;;1.02;0.60;;;;;;;26.10;24.41;99819.81;6319233;28;20473;-63
2021/05/27 13:20:27;;;;;;;2.17;0.68;;;;;;;26.21;25.90;99823.78;6319282;28;20055;-63
2021/05/27 13:23:34;;;;;;;1.02;0.50;;;;;;;26.25;25.54;99819.69;6319472;28;20036;-64
2021/05/27 13:26:34;;;;;;;2.53;0.47;;;;;;;26.24;25.84;99818.03;6329072;28;20040;-62
2021/05/27 13:30:13;;;;;;;1.80;0.60;;;;;;;26.16;25.46;99812.88;6344741;28;20053;-64
2021/05/27 13:33:17;;;;;;;1.55;0.60;;;;;;;26.24;24.81;99812.69;6301631;28;20672;-64
2021/05/27 13:40:07;;;;;;;1.67;0.30;;;;;;;26.25;24.72;99816.16;6345308;28;20496;-64
2021/05/27 13:43:08;;;;;;;;;;;;;;;26.30;23.99;99809.19;6347187;28;20048;-64
2021/05/27 13:46:10;;;;;;;4.85;0.57;;;;;;;25.96;24.23;99806.63;6349612;28;19927;-64
2021/05/27 13:49:11;;;;;;;0.50;0.30;;;;;;;25.80;25.97;99802.41;6331664;28;20051;-64
2021/05/27 13:52:13;;;;;;;2.22;0.60;;;;;;;25.27;22.28;99805.63;6348405;28;20044;-64
2021/05/27 13:55:16;;;;;;;2.92;0.50;;;;;;;25.21;24.68;99807.22;6349328;28;20052;-64
2021/05/27 13:58:22;;;;;;;4.05;0.70;;;;;;;24.77;23.07;99794.13;6349474;28;20051;-64
2021/05/27 14:01:23;;;;;;;1.88;0.50;;;;;;;24.63;27.09;99793.19;6349329;28;20461;-64
2021/05/27 14:04:28;;;;;;;1.50;0.60;;;;;;;24.73;26.75;99781.19;6349211;28;20451;-64
2021/05/27 14:07:29;;;;;;;1.15;0.55;;;;;;;24.61;24.75;99793.38;6349020;28;20036;-64
2021/05/27 14:10:30;;;;;;;3.00;0.68;;;;;;;24.83;25.77;99782.69;6349619;28;20038;-64
2021/05/27 14:13:31;;;;;;;1.48;0.50;;;;;;;24.58;23.34;99788.41;6349119;28;20081;-64
2021/05/27 14:16:33;;;;;;;0.93;0.53;;;;;;;24.59;22.98;99784.75;6348961;28;20513;-65
2021/05/27 14:19:34;;;;;;;1.30;0.45;;;;;;;24.84;24.97;99776.34;6347978;28;20275;-64
2021/05/27 14:22:35;;;;;;;0.87;0.40;;;;;;;24.86;23.70;99774.31;6347683;28;20119;-64
2021/05/27 14:25:36;;;;;;;1.20;0.52;;;;;;;24.65;24.76;99765.31;6348813;28;20039;-64
2021/05/27 14:28:37;;;;;;;8.82;0.63;;;;;;;24.90;26.42;99764.91;6348620;28;20386;-64
2021/05/27 14:31:39;;;;;;;2.03;0.73;;;;;;;24.88;24.44;99765.09;6347464;28;20482;-64
2021/05/27 14:34:41;;;;;;;1.42;0.50;;;;;;;24.62;22.59;99764.88;6347281;28;20050;-64
2021/05/27 14:37:42;;;;;;;2.38;0.57;;;;;;;24.55;24.47;99772.81;6348528;28;20048;-64